createdAt,value
2018-05-02T00:01:17.619Z,100988.78
2018-05-02T00:03:45.799Z,100986.64
2018-05-02T00:06:14.412Z,100986.20
2018-05-02T00:08:42.656Z,100987.24
2018-05-02T00:11:10.898Z,100979.02
2018-05-02T00:13:39.573Z,100981.21
2018-05-02T00:16:07.767Z,100987.80
2018-05-02T00:18:36.045Z,100993.12
2018-05-02T00:21:04.630Z,100984.84
2018-05-02T00:23:32.816Z,100988.14
2018-05-02T00:26:01.023Z,100982.16
2018-05-02T00:28:29.771Z,100988.73
2018-05-02T00:30:57.942Z,100982.60
2018-05-02T00:33:26.131Z,100981.83
2018-05-02T00:35:54.845Z,100981.08
2018-05-02T00:38:23.048Z,100975.11
2018-05-02T00:40:51.238Z,100975.16
2018-05-02T00:45:45.709Z,100978.18
2018-05-02T00:48:14.007Z,100977.69
2018-05-02T00:50:42.266Z,100971.61
2018-05-02T00:53:11.048Z,100972.25
2018-05-02T00:55:39.319Z,100962.66
2018-05-02T00:58:31.979Z,100964.84
2018-05-02T01:01:06.089Z,100967.09
2018-05-02T01:03:34.381Z,100970.56
2018-05-02T01:06:02.565Z,100965.94
2018-05-02T01:08:31.201Z,100973.88
2018-05-02T01:10:59.426Z,100974.87
2018-05-02T01:13:27.617Z,100972.80
2018-05-02T01:15:56.432Z,100975.81
2018-05-02T01:18:24.697Z,100975.03
2018-05-02T01:20:52.893Z,100971.20
2018-05-02T01:23:21.422Z,100982.76
2018-05-02T01:25:49.636Z,100987.18
2018-05-02T01:28:17.810Z,100991.27
2018-05-02T01:30:46.588Z,100985.26
2018-05-02T01:33:14.783Z,100991.83
2018-05-02T01:35:42.981Z,100989.34
2018-05-02T01:38:11.738Z,100986.73
2018-05-02T01:40:39.963Z,100984.34
2018-05-02T01:43:08.143Z,100984.73
2018-05-02T01:45:36.750Z,100984.73
2018-05-02T01:48:04.981Z,100986.49
2018-05-02T01:50:33.193Z,100984.30
2018-05-02T01:53:01.971Z,100979.54
2018-05-02T01:55:30.224Z,100980.41
2018-05-02T01:57:58.418Z,100977.50
2018-05-02T02:00:27.013Z,100974.05
2018-05-02T02:02:55.219Z,100970.69
2018-05-02T02:05:23.462Z,100968.11
2018-05-02T02:07:52.149Z,100969.91
2018-05-02T02:10:20.422Z,100963.80
2018-05-02T02:12:48.623Z,100955.95
2018-05-02T02:15:17.282Z,100957.75
2018-05-02T02:17:45.504Z,100945.13
2018-05-02T02:20:13.706Z,100946.97
2018-05-02T02:22:42.389Z,100942.20
2018-05-02T02:25:10.649Z,100946.30
2018-05-02T02:27:38.887Z,100943.28
2018-05-02T02:30:07.556Z,100948.44
2018-05-02T02:32:35.777Z,100941.68
2018-05-02T02:35:03.996Z,100944.74
2018-05-02T02:37:32.577Z,100938.67
2018-05-02T02:40:00.802Z,100946.54
2018-05-02T02:42:31.845Z,100940.03
2018-05-02T02:45:00.042Z,100937.67
2018-05-02T02:47:28.734Z,100932.41
2018-05-02T02:49:57.375Z,100929.84
2018-05-02T02:52:25.575Z,100930.38
2018-05-02T02:54:53.797Z,100926.88
2018-05-02T02:57:22.321Z,100930.42
2018-05-02T02:59:50.520Z,100929.84
2018-05-02T03:02:18.732Z,100933.83
2018-05-02T03:04:47.547Z,100936.94
2018-05-02T03:07:15.735Z,100927.80
2018-05-02T03:09:43.996Z,100930.86
2018-05-02T03:12:12.619Z,100930.48
2018-05-02T03:14:40.943Z,100926.09
2018-05-02T03:17:09.680Z,100930.47
2018-05-02T03:19:38.320Z,100933.68
2018-05-02T03:22:06.527Z,100931.98
2018-05-02T03:24:34.747Z,100935.09
2018-05-02T03:27:03.299Z,100927.74
2018-05-02T03:29:31.523Z,100932.18
2018-05-02T03:31:59.859Z,100930.56
2018-05-02T03:34:28.361Z,100933.20
2018-05-02T03:36:56.554Z,100937.12
2018-05-02T03:39:24.886Z,100939.86
2018-05-02T03:41:53.391Z,100935.53
2018-05-02T03:44:21.601Z,100926.88
2018-05-02T03:46:49.921Z,100932.69
2018-05-02T03:49:18.529Z,100931.73
2018-05-02T03:51:46.761Z,100930.60
2018-05-02T03:54:15.166Z,100937.50
2018-05-02T03:56:43.708Z,100940.13
2018-05-02T03:59:11.987Z,100936.03
2018-05-02T04:01:52.137Z,100942.59
2018-05-02T04:07:25.648Z,100951.34
2018-05-02T04:09:54.347Z,100949.49
2018-05-02T04:12:22.588Z,100952.22
2018-05-02T04:14:50.786Z,100958.77
2018-05-02T04:17:19.428Z,100961.66
2018-05-02T04:19:47.658Z,100961.66
2018-05-02T04:22:15.881Z,100959.85
2018-05-02T04:24:44.636Z,100955.83
2018-05-02T04:27:12.883Z,100967.16
2018-05-02T04:29:41.071Z,100969.73
2018-05-02T04:32:09.726Z,100974.11
2018-05-02T04:34:37.980Z,100975.80
2018-05-02T04:37:06.198Z,100982.77
2018-05-02T04:39:34.770Z,100981.84
2018-05-02T04:42:03.044Z,100976.98
2018-05-02T04:44:31.226Z,100972.95
2018-05-02T04:46:59.983Z,100971.25
2018-05-02T04:49:28.195Z,100974.31
2018-05-02T04:51:56.370Z,100973.00
2018-05-02T04:54:25.135Z,100974.22
2018-05-02T04:56:53.401Z,100969.70
2018-05-02T04:59:21.592Z,100982.30
2018-05-02T05:01:50.188Z,100980.94
2018-05-02T05:04:18.453Z,100980.14
2018-05-02T05:06:46.668Z,100983.17
2018-05-02T05:09:15.384Z,100986.70
2018-05-02T05:11:43.601Z,100994.55
2018-05-02T05:14:11.885Z,100987.75
2018-05-02T05:16:40.405Z,100995.09
2018-05-02T05:19:08.652Z,100995.91
2018-05-02T05:21:36.976Z,100994.55
2018-05-02T05:24:05.670Z,101002.67
2018-05-02T05:26:33.878Z,101007.88
2018-05-02T05:29:02.333Z,101006.46
2018-05-02T05:31:30.840Z,101005.10
2018-05-02T05:33:59.069Z,101007.19
2018-05-02T05:36:27.328Z,101000.91
2018-05-02T05:38:55.998Z,100990.80
2018-05-02T05:41:24.314Z,101001.25
2018-05-02T05:43:52.564Z,100999.94
2018-05-02T05:46:21.294Z,100998.53
2018-05-02T05:48:49.760Z,100999.73
2018-05-02T05:51:18.007Z,101002.59
2018-05-02T05:53:55.614Z,101006.05
2018-05-02T05:56:46.343Z,101002.16
2018-05-02T05:59:30.434Z,101001.42
2018-05-02T06:02:10.442Z,101000.45
2018-05-02T06:05:00.485Z,101003.25
2018-05-02T06:08:02.589Z,101009.77
2018-05-02T06:10:38.204Z,101009.67
2018-05-02T06:13:12.121Z,101005.03
2018-05-02T06:15:42.402Z,101004.34
2018-05-02T06:18:11.058Z,100999.03
2018-05-02T06:20:39.303Z,101002.75
2018-05-02T06:23:07.561Z,101002.92
2018-05-02T06:25:46.184Z,101006.99
2018-05-02T06:28:29.047Z,101000.92
2018-05-02T06:31:04.150Z,101000.25
2018-05-02T06:33:41.705Z,100999.48
2018-05-02T06:36:17.452Z,100993.01
2018-05-02T06:38:51.094Z,100993.03
2018-05-02T06:41:28.901Z,100995.83
2018-05-02T06:44:14.721Z,100989.83
2018-05-02T06:46:50.909Z,100992.49
2018-05-02T06:49:27.604Z,100991.74
2018-05-02T06:52:02.561Z,100990.06
2018-05-02T06:54:38.962Z,100990.49
2018-05-02T06:57:09.781Z,100991.95
2018-05-02T06:59:44.438Z,100990.96
2018-05-02T07:02:19.387Z,100987.95
2018-05-02T07:04:55.011Z,100997.80
2018-05-02T07:07:25.583Z,100995.92
2018-05-02T07:10:03.081Z,100991.08
2018-05-02T07:12:45.037Z,100992.20
2018-05-02T07:15:35.172Z,100994.50
2018-05-02T07:18:18.478Z,100994.50
2018-05-02T07:20:53.702Z,100993.28
2018-05-02T07:23:27.250Z,101000.67
2018-05-02T07:26:07.415Z,100994.20
2018-05-02T07:28:43.713Z,100990.91
2018-05-02T07:31:32.641Z,100981.28
2018-05-02T07:34:14.888Z,100985.57
2018-05-02T07:36:48.268Z,100990.90
2018-05-02T07:39:25.398Z,100986.47
2018-05-02T07:42:04.126Z,100989.56
2018-05-02T07:44:48.877Z,100978.48
2018-05-02T07:47:23.094Z,100983.55
2018-05-02T07:49:57.370Z,100989.66
2018-05-02T07:52:33.888Z,100985.61
2018-05-02T07:55:12.304Z,100976.64
2018-05-02T07:57:44.991Z,100979.97
2018-05-02T08:00:21.759Z,100971.80
2018-05-02T08:02:57.211Z,100968.18
2018-05-02T08:05:30.292Z,100971.92
2018-05-02T08:08:06.711Z,100961.14
2018-05-02T08:10:39.609Z,100969.23
2018-05-02T08:13:19.914Z,100963.83
2018-05-02T08:16:07.724Z,100966.33
2018-05-02T08:18:40.424Z,100961.80
2018-05-02T08:21:09.709Z,100961.36
2018-05-02T08:23:38.443Z,100961.06
2018-05-02T08:26:06.694Z,100953.52
2018-05-02T08:28:34.941Z,100947.60
2018-05-02T08:31:03.681Z,100949.73
2018-05-02T08:33:31.864Z,100941.72
2018-05-02T08:36:00.489Z,100941.99
2018-05-02T08:38:29.350Z,100947.48
2018-05-02T08:40:57.566Z,100940.09
2018-05-02T08:43:25.797Z,100936.39
2018-05-02T08:45:54.441Z,100926.42
2018-05-02T08:48:22.651Z,100920.23
2018-05-02T08:50:51.820Z,100912.51
2018-05-02T08:53:21.743Z,100914.19
2018-05-02T08:55:50.320Z,100912.71
2018-05-02T08:58:18.527Z,100914.75
2018-05-02T09:00:46.884Z,100913.71
2018-05-02T09:03:15.438Z,100914.70
2018-05-02T09:05:43.676Z,100919.42
2018-05-02T09:08:11.930Z,100915.13
2018-05-02T09:10:41.178Z,100910.63
2018-05-02T09:13:09.994Z,100910.09
2018-05-02T09:15:38.644Z,100913.31
2018-05-02T09:18:06.984Z,100910.14
2018-05-02T09:20:35.694Z,100902.56
2018-05-02T09:23:03.911Z,100904.16
2018-05-02T09:25:32.178Z,100909.00
2018-05-02T09:28:00.844Z,100903.38
2018-05-02T09:30:29.065Z,100897.43
2018-05-02T09:32:57.379Z,100895.41
2018-05-02T09:35:26.724Z,100902.61
2018-05-02T09:37:55.328Z,100901.81
2018-05-02T09:40:23.584Z,100896.05
2018-05-02T09:42:51.818Z,100897.89
2018-05-02T09:45:20.600Z,100893.19
2018-05-02T09:47:48.811Z,100887.22
2018-05-02T09:50:17.063Z,100885.19
2018-05-02T09:52:45.689Z,100878.89
2018-05-02T09:55:13.918Z,100872.06
2018-05-02T09:57:42.122Z,100872.21
2018-05-02T10:00:11.437Z,100867.06
2018-05-02T10:02:39.654Z,100875.92
2018-05-02T10:05:08.403Z,100879.19
2018-05-02T10:07:36.953Z,100879.45
2018-05-02T10:10:05.265Z,100863.22
2018-05-02T10:12:34.476Z,100873.98
2018-05-02T10:15:02.621Z,100872.31
2018-05-02T10:17:31.336Z,100868.54
2018-05-02T10:19:59.539Z,100865.48
2018-05-02T10:22:27.749Z,100854.94
2018-05-02T10:24:56.453Z,100866.14
2018-05-02T10:27:24.665Z,100851.63
2018-05-02T10:29:52.951Z,100847.56
2018-05-02T10:32:21.620Z,100849.06
2018-05-02T10:34:49.912Z,100852.02
2018-05-02T10:37:18.113Z,100846.44
2018-05-02T10:39:46.759Z,100846.34
2018-05-02T10:42:15.044Z,100843.17
2018-05-02T10:44:43.293Z,100843.49
2018-05-02T10:47:11.903Z,100839.43
2018-05-02T10:49:40.118Z,100830.56
2018-05-02T10:52:08.318Z,100823.66
2018-05-02T10:54:37.058Z,100824.03
2018-05-02T10:57:05.289Z,100816.58
2018-05-02T10:59:33.505Z,100824.48
2018-05-02T11:02:02.315Z,100822.95
2018-05-02T11:04:30.517Z,100817.00
2018-05-02T11:06:58.719Z,100802.37
2018-05-02T11:09:27.398Z,100810.78
2018-05-02T11:11:56.129Z,100810.27
2018-05-02T11:14:24.602Z,100804.06
2018-05-02T11:16:53.221Z,100805.52
2018-05-02T11:19:21.498Z,100806.48
2018-05-02T11:21:49.819Z,100804.15
2018-05-02T11:24:18.355Z,100802.31
2018-05-02T11:26:46.620Z,100792.24
2018-05-02T11:29:14.952Z,100795.19
2018-05-02T11:31:44.282Z,100787.56
2018-05-02T11:34:12.992Z,100792.23
2018-05-02T11:36:41.159Z,100784.03
2018-05-02T11:39:09.395Z,100788.42
2018-05-02T11:41:38.213Z,100775.64
2018-05-02T11:44:06.400Z,100778.88
2018-05-02T11:46:34.647Z,100769.98
2018-05-02T11:49:03.225Z,100773.64
2018-05-02T11:51:31.411Z,100769.11
2018-05-02T11:53:59.821Z,100769.55
2018-05-02T11:56:28.579Z,100769.74
2018-05-02T11:58:56.856Z,100771.75
2018-05-02T12:01:25.053Z,100782.56
2018-05-02T12:03:53.783Z,100772.38
2018-05-02T12:06:22.019Z,100764.40
2018-05-02T12:08:50.248Z,100759.41
2018-05-02T12:11:18.889Z,100760.09
2018-05-02T12:13:47.090Z,100752.88
2018-05-02T12:16:15.411Z,100751.08
2018-05-02T12:18:44.130Z,100741.01
2018-05-02T12:21:12.384Z,100741.50
2018-05-02T12:23:40.610Z,100742.50
2018-05-02T12:26:09.330Z,100746.98
2018-05-02T12:28:37.542Z,100740.80
2018-05-02T12:31:05.798Z,100739.64
2018-05-02T12:33:34.396Z,100743.81
2018-05-02T12:36:02.618Z,100737.45
2018-05-02T12:38:31.208Z,100734.55
2018-05-02T12:40:59.668Z,100727.13
2018-05-02T12:43:27.888Z,100729.89
2018-05-02T12:45:56.137Z,100723.95
2018-05-02T12:48:24.985Z,100715.50
2018-05-02T12:50:53.207Z,100720.21
2018-05-02T12:53:21.404Z,100706.52
2018-05-02T12:55:50.065Z,100708.55
2018-05-02T12:58:18.267Z,100703.62
2018-05-02T13:00:46.493Z,100698.59
2018-05-02T13:03:15.173Z,100701.04
2018-05-02T13:05:43.403Z,100699.23
2018-05-02T13:08:11.737Z,100692.09
2018-05-02T13:10:40.445Z,100683.25
2018-05-02T13:13:08.628Z,100666.45
2018-05-02T13:15:36.867Z,100670.63
2018-05-02T13:18:05.478Z,100671.05
2018-05-02T13:20:33.660Z,100656.68
2018-05-02T13:23:01.913Z,100654.03
2018-05-02T13:25:30.640Z,100653.27
2018-05-02T13:27:58.814Z,100648.13
2018-05-02T13:30:27.099Z,100656.02
2018-05-02T13:32:55.889Z,100647.66
2018-05-02T13:35:24.141Z,100649.67
2018-05-02T13:37:52.325Z,100640.56
2018-05-02T13:40:21.019Z,100638.80
2018-05-02T13:42:49.348Z,100628.66
2018-05-02T13:45:17.573Z,100619.39
2018-05-02T13:47:46.095Z,100616.37
2018-05-02T13:50:14.296Z,100607.56
2018-05-02T13:52:42.530Z,100618.59
2018-05-02T13:55:11.282Z,100620.72
2018-05-02T13:57:39.494Z,100598.32
2018-05-02T14:00:07.736Z,100605.21
2018-05-02T14:02:36.465Z,100603.52
2018-05-02T14:05:04.678Z,100601.77
2018-05-02T14:07:32.972Z,100596.09
2018-05-02T14:10:01.731Z,100590.68
2018-05-02T14:12:30.221Z,100589.91
2018-05-02T14:14:58.798Z,100583.39
2018-05-02T14:17:27.517Z,100587.84
2018-05-02T14:19:55.773Z,100594.27
2018-05-02T14:22:23.991Z,100598.47
2018-05-02T14:24:52.527Z,100595.55
2018-05-02T14:27:20.710Z,100587.99
2018-05-02T14:29:49.084Z,100581.27
2018-05-02T14:32:17.827Z,100577.17
2018-05-02T14:34:46.045Z,100577.81
2018-05-02T14:37:14.379Z,100577.66
2018-05-02T14:39:42.946Z,100576.25
2018-05-02T14:42:11.159Z,100580.70
2018-05-02T14:44:39.558Z,100581.48
2018-05-02T14:47:08.126Z,100583.67
2018-05-02T14:49:36.321Z,100579.48
2018-05-02T14:52:04.775Z,100582.70
2018-05-02T14:54:33.407Z,100583.47
2018-05-02T14:57:01.604Z,100577.11
2018-05-02T14:59:29.863Z,100575.08
2018-05-02T15:01:58.571Z,100571.65
2018-05-02T15:04:26.758Z,100573.83
2018-05-02T15:06:55.128Z,100572.52
2018-05-02T15:09:24.041Z,100565.75
2018-05-02T15:11:52.266Z,100568.95
2018-05-02T15:14:20.448Z,100564.45
2018-05-02T15:16:48.960Z,100562.53
2018-05-02T15:19:17.192Z,100562.13
2018-05-02T15:21:45.443Z,100555.63
2018-05-02T15:24:14.836Z,100563.97
2018-05-02T15:26:43.501Z,100558.96
2018-05-02T15:29:11.739Z,100559.00
2018-05-02T15:31:40.005Z,100555.59
2018-05-02T15:34:08.847Z,100553.28
2018-05-02T15:36:37.057Z,100555.58
2018-05-02T15:39:06.052Z,100554.32
2018-05-02T15:41:34.511Z,100553.83
2018-05-02T15:44:02.705Z,100555.27
2018-05-02T15:46:31.233Z,100546.05
2018-05-02T15:48:59.795Z,100552.74
2018-05-02T15:51:28.020Z,100555.80
2018-05-02T15:53:56.297Z,100549.53
2018-05-02T15:56:24.810Z,100547.83
2018-05-02T15:58:53.042Z,100549.40
2018-05-02T16:01:21.393Z,100544.05
2018-05-02T16:03:50.040Z,100540.57
2018-05-02T16:06:18.226Z,100545.31
2018-05-02T16:08:46.522Z,100535.48
2018-05-02T16:11:15.079Z,100534.53
2018-05-02T16:13:43.392Z,100532.45
2018-05-02T16:16:11.669Z,100529.41
2018-05-02T16:18:40.487Z,100529.84
2018-05-02T16:21:08.697Z,100531.66
2018-05-02T16:23:36.931Z,100537.58
2018-05-02T16:26:05.555Z,100536.38
2018-05-02T16:28:33.767Z,100536.89
2018-05-02T16:31:02.009Z,100531.30
2018-05-02T16:33:30.748Z,100537.48
2018-05-02T16:35:59.008Z,100536.42
2018-05-02T16:38:27.215Z,100538.66
2018-05-02T16:40:55.780Z,100529.28
2018-05-02T16:43:24.015Z,100530.00
2018-05-02T16:45:52.404Z,100538.90
2018-05-02T16:48:21.021Z,100540.12
2018-05-02T16:50:49.239Z,100534.56
2018-05-02T16:53:17.508Z,100542.36
2018-05-02T16:55:46.153Z,100545.22
2018-05-02T16:58:14.360Z,100543.48
2018-05-02T17:00:42.715Z,100532.02
2018-05-02T17:03:11.930Z,100532.97
2018-05-02T17:05:40.868Z,100537.73
2018-05-02T17:08:09.212Z,100543.31
2018-05-02T17:10:37.991Z,100548.95
2018-05-02T17:13:06.454Z,100547.44
2018-05-02T17:15:34.676Z,100545.46
2018-05-02T17:18:03.003Z,100544.80
2018-05-02T17:20:31.712Z,100546.33
2018-05-02T17:22:59.919Z,100551.36
2018-05-02T17:25:28.149Z,100545.84
2018-05-02T17:27:56.726Z,100544.69
2018-05-02T17:30:24.925Z,100549.50
2018-05-02T17:32:53.367Z,100547.80
2018-05-02T17:35:21.925Z,100553.66
2018-05-02T17:37:50.139Z,100555.69
2018-05-02T17:40:18.437Z,100548.97
2018-05-02T17:42:46.991Z,100556.64
2018-05-02T17:45:15.203Z,100554.45
2018-05-02T17:47:43.780Z,100557.46
2018-05-02T17:50:12.605Z,100569.56
2018-05-02T17:52:40.841Z,100568.74
2018-05-02T17:55:09.057Z,100565.13
2018-05-02T17:57:37.595Z,100566.55
2018-05-02T18:00:05.848Z,100565.98
2018-05-02T18:02:34.062Z,100568.41
2018-05-02T18:05:02.699Z,100570.20
2018-05-02T18:07:31.101Z,100581.39
2018-05-02T18:09:59.313Z,100578.62
2018-05-02T18:12:27.873Z,100584.09
2018-05-02T18:14:56.112Z,100579.84
2018-05-02T18:17:24.312Z,100581.68
2018-05-02T18:19:53.046Z,100579.55
2018-05-02T18:22:21.269Z,100580.48
2018-05-02T18:24:49.462Z,100578.89
2018-05-02T18:27:18.804Z,100587.27
2018-05-02T18:29:47.794Z,100584.36
2018-05-02T18:32:16.077Z,100587.94
2018-05-02T18:34:44.297Z,100587.61
2018-05-02T18:37:12.583Z,100586.75
2018-05-02T18:39:40.818Z,100587.66
2018-05-02T18:42:09.740Z,100602.10
2018-05-02T18:44:39.356Z,100610.08
2018-05-02T18:47:07.784Z,100609.34
2018-05-02T18:49:36.074Z,100613.91
2018-05-02T18:52:04.925Z,100605.39
2018-05-02T18:54:33.655Z,100612.22
2018-05-02T18:57:01.955Z,100610.03
2018-05-02T18:59:30.722Z,100613.25
2018-05-02T19:01:59.428Z,100614.00
2018-05-02T19:04:27.704Z,100617.80
2018-05-02T19:06:55.972Z,100620.39
2018-05-02T19:09:24.872Z,100625.02
2018-05-02T19:11:53.839Z,100619.05
2018-05-02T19:14:22.144Z,100617.28
2018-05-02T19:16:51.001Z,100622.84
2018-05-02T19:19:25.501Z,100628.51
2018-05-02T19:21:53.798Z,100634.58
2018-05-02T19:24:23.529Z,100643.34
2018-05-02T19:26:52.812Z,100644.67
2018-05-02T19:29:21.578Z,100643.91
2018-05-02T19:31:56.222Z,100649.61
2018-05-02T19:34:25.789Z,100650.16
2018-05-02T19:36:54.998Z,100653.45
2018-05-02T19:39:23.286Z,100656.84
2018-05-02T19:41:57.758Z,100652.98
2018-05-02T19:44:26.359Z,100653.42
2018-05-02T19:46:55.511Z,100657.53
2018-05-02T19:49:24.653Z,100661.38
2018-05-02T19:51:58.605Z,100656.86
2018-05-02T19:54:27.532Z,100669.92
2018-05-02T19:56:56.197Z,100669.09
2018-05-02T19:59:25.281Z,100677.05
2018-05-02T20:01:59.202Z,100675.97
2018-05-02T20:04:27.395Z,100675.87
2018-05-02T20:06:56.372Z,100676.73
2018-05-02T20:09:30.373Z,100687.59
2018-05-02T20:12:04.264Z,100689.67
2018-05-02T20:14:32.463Z,100690.96
2018-05-02T20:17:01.113Z,100697.50
2018-05-02T20:19:29.387Z,100697.31
2018-05-02T20:21:57.624Z,100692.81
2018-05-02T20:24:26.468Z,100693.63
2018-05-02T20:26:54.724Z,100696.94
2018-05-02T20:29:23.005Z,100696.56
2018-05-02T20:31:51.676Z,100696.12
2018-05-02T20:34:20.001Z,100691.98
2018-05-02T20:36:48.225Z,100694.09
2018-05-02T20:39:17.182Z,100696.69
2018-05-02T20:41:45.916Z,100698.72
2018-05-02T20:44:14.107Z,100693.80
2018-05-02T20:46:42.350Z,100703.74
2018-05-02T20:49:11.085Z,100701.66
2018-05-02T20:51:39.288Z,100703.83
2018-05-02T20:54:08.147Z,100703.56
2018-05-02T20:56:36.886Z,100706.89
2018-05-02T20:59:05.141Z,100708.22
2018-05-02T21:01:33.344Z,100711.88
2018-05-02T21:04:01.954Z,100709.29
2018-05-02T21:06:30.172Z,100707.33
2018-05-02T21:08:58.573Z,100712.05
2018-05-02T21:11:27.047Z,100705.70
2018-05-02T21:13:55.277Z,100708.06
2018-05-02T21:16:23.536Z,100713.72
2018-05-02T21:18:52.172Z,100712.66
2018-05-02T21:21:20.388Z,100715.41
2018-05-02T21:23:48.906Z,100714.35
2018-05-02T21:26:17.655Z,100716.61
2018-05-02T21:28:45.980Z,100719.44
2018-05-02T21:31:14.171Z,100716.09
2018-05-02T21:33:43.010Z,100722.00
2018-05-02T21:36:11.246Z,100719.71
2018-05-02T21:38:39.515Z,100722.70
2018-05-02T21:41:08.207Z,100722.73
2018-05-02T21:43:36.556Z,100727.81
2018-05-02T21:46:04.987Z,100733.39
2018-05-02T21:48:33.698Z,100731.63
2018-05-02T21:51:02.387Z,100729.08
2018-05-02T21:53:30.608Z,100727.45
2018-05-02T21:55:58.835Z,100728.87
2018-05-02T21:58:27.526Z,100729.11
2018-05-02T22:00:56.500Z,100732.96
2018-05-02T22:03:24.706Z,100734.42
2018-05-02T22:05:53.226Z,100737.73
2018-05-02T22:08:37.147Z,100738.37
2018-05-02T22:11:09.197Z,100746.33
2018-05-02T22:13:37.924Z,100747.77
2018-05-02T22:16:06.703Z,100750.98
2018-05-02T22:18:35.056Z,100749.19
2018-05-02T22:21:03.605Z,100757.16
2018-05-02T22:23:31.853Z,100750.84
2018-05-02T22:26:00.152Z,100758.52
2018-05-02T22:28:33.021Z,100761.08
2018-05-02T22:31:01.233Z,100759.71
2018-05-02T22:33:29.497Z,100767.71
2018-05-02T22:35:58.288Z,100767.62
2018-05-02T22:38:26.520Z,100765.00
2018-05-02T22:48:36.760Z,100777.97
2018-05-02T22:51:05.414Z,100780.81
2018-05-02T22:53:33.620Z,100780.52
2018-05-02T22:56:01.822Z,100779.28
2018-05-02T22:58:30.549Z,100780.15
2018-05-02T23:00:58.749Z,100778.22
2018-05-02T23:03:26.985Z,100779.91
2018-05-02T23:05:55.685Z,100783.09
2018-05-02T23:08:23.899Z,100781.20
2018-05-02T23:10:52.138Z,100785.63
2018-05-02T23:13:20.948Z,100788.69
2018-05-02T23:15:49.151Z,100784.75
2018-05-02T23:18:17.380Z,100783.38
2018-05-02T23:20:45.984Z,100785.07
2018-05-02T23:23:14.203Z,100789.82
2018-05-02T23:25:42.465Z,100790.52
2018-05-02T23:28:11.211Z,100795.94
2018-05-02T23:30:39.391Z,100794.61
2018-05-02T23:33:07.638Z,100795.56
2018-05-02T23:35:36.403Z,100798.78
2018-05-02T23:38:04.600Z,100796.92
2018-05-02T23:40:32.870Z,100792.20
2018-05-02T23:43:01.729Z,100792.58
2018-05-02T23:45:30.001Z,100793.42
2018-05-02T23:47:58.730Z,100793.09
2018-05-02T23:50:27.544Z,100793.70
2018-05-02T23:52:55.744Z,100796.40
2018-05-02T23:55:23.926Z,100794.81
2018-05-02T23:57:52.672Z,100792.20
